Time,TemperatureF,DewpointF,PressureIn,WindDirection,WindDirectionDegrees,WindSpeedMPH,WindSpeedGustMPH,Humidity,HourlyPrecipIn,Conditions,Clouds,dailyrainin,SoftwareType,DateUTC
2013-04-08 00:04:00,57.2,17.6,24.19,West,270,3.5,3.5,21,0.00,CLR,,0.00,WeatherDisplay:10.37,2013-04-08 06:04:00,
2013-04-08 00:09:00,57.2,17.6,24.19,West,270,5.8,5.8,21,0.00,CLR,,0.00,WeatherDisplay:10.37,2013-04-08 06:09:00,
2013-04-08 00:14:00,57.2,17.6,24.19,West,270,3.5,3.5,21,0.00,CLR,,0.00,WeatherDisplay:10.37,2013-04-08 06:14:00,
2013-04-08 00:20:00,57.2,17.6,24.19,West,270,4.6,4.6,21,0.00,CLR,,0.00,WeatherDisplay:10.37,2013-04-08 06:20:00,
2013-04-08 00:25:00,56.8,18.3,24.19,West,270,4.6,4.6,22,0.00,CLR,,0.00,WeatherDisplay:10.37,2013-04-08 06:25:00,
2013-04-08 00:30:00,56.3,17.9,24.19,West,270,5.8,5.8,22,0.00,CLR,,0.00,WeatherDisplay:10.37,2013-04-08 06:30:00,
2013-04-08 00:35:00,56.1,17.7,24.19,West,270,5.8,5.8,22,0.00,CLR,,0.00,WeatherDisplay:10.37,2013-04-08 06:35:00,
2013-04-08 00:41:00,55.6,17.3,24.19,West,270,4.6,4.6,22,0.00,CLR,,0.00,WeatherDisplay:10.37,2013-04-08 06:41:00,
2013-04-08 00:46:00,55.2,14.8,24.19,NW,315,5.8,5.8,20,0.00,CLR,,0.00,WeatherDisplay:10.37,2013-04-08 06:46:00,
2013-04-08 00:51:00,54.9,14.5,24.19,West,270,5.8,5.8,20,0.00,CLR,,0.00,WeatherDisplay:10.37,2013-04-08 06:51:00,
2013-04-08 00:56:00,54.9,14.5,24.19,NW,315,4.6,4.6,20,0.00,CLR,,0.00,WeatherDisplay:10.37,2013-04-08 06:56:00,
2013-04-08 01:01:00,54.9,14.5,24.19,NW,315,5.8,5.8,20,0.00,CLR,,0.00,WeatherDisplay:10.37,2013-04-08 07:01:00,
2013-04-08 01:07:00,54.9,15.6,24.19,West,270,5.8,5.8,21,0.00,CLR,,0.00,WeatherDisplay:10.37,2013-04-08 07:07:00,
2013-04-08 01:12:00,55.0,15.8,24.18,NW,315,3.5,3.5,21,0.00,CLR,,0.00,WeatherDisplay:10.37,2013-04-08 07:12:00,
2013-04-08 01:17:00,54.7,14.3,24.18,West,270,4.6,4.6,20,0.00,CLR,,0.00,WeatherDisplay:10.37,2013-04-08 07:17:00,
2013-04-08 01:22:00,55.6,17.3,24.19,West,270,5.8,5.8,22,0.00,CLR,,0.00,WeatherDisplay:10.37,2013-04-08 07:22:00,
2013-04-08 01:27:00,56.1,17.7,24.19,NW,315,4.6,4.6,22,0.00,CLR,,0.00,WeatherDisplay:10.37,2013-04-08 07:27:00,
2013-04-08 01:32:00,56.5,18.0,24.19,West,270,9.2,9.2,22,0.00,CLR,,0.00,WeatherDisplay:10.37,2013-04-08 07:32:00,
2013-04-08 01:38:00,56.3,17.9,24.19,West,270,6.9,6.9,22,0.00,CLR,,0.00,WeatherDisplay:10.37,2013-04-08 07:38:00,
2013-04-08 01:43:00,55.9,17.6,24.18,West,270,8.1,8.1,22,0.00,CLR,,0.00,WeatherDisplay:10.37,2013-04-08 07:43:00,
2013-04-08 01:48:00,55.8,17.4,24.19,SW,225,9.2,9.2,22,0.00,CLR,,0.00,WeatherDisplay:10.37,2013-04-08 07:48:00,
2013-04-08 01:54:00,56.8,18.3,24.19,West,270,8.1,8.1,22,0.00,CLR,,0.00,WeatherDisplay:10.37,2013-04-08 07:54:00,
2013-04-08 01:59:00,56.3,17.9,24.18,NW,315,5.8,5.8,22,0.00,CLR,,0.00,WeatherDisplay:10.37,2013-04-08 07:59:00,
2013-04-08 02:04:00,56.1,17.7,24.19,NW,315,6.9,6.9,22,0.00,CLR,,0.00,WeatherDisplay:10.37,2013-04-08 08:04:00,
2013-04-08 02:09:00,55.0,15.8,24.18,West,270,8.1,8.1,21,0.00,CLR,,0.00,WeatherDisplay:10.37,2013-04-08 08:09:00,
2013-04-08 02:15:00,54.3,15.2,24.19,NW,315,8.1,8.1,21,0.00,CLR,,0.00,WeatherDisplay:10.37,2013-04-08 08:15:00,
2013-04-08 02:20:00,54.3,15.2,24.18,West,270,8.1,8.1,21,0.00,CLR,,0.00,WeatherDisplay:10.37,2013-04-08 08:20:00,
2013-04-08 02:25:00,54.7,15.5,24.18,West,270,8.1,8.1,21,0.00,CLR,,0.00,WeatherDisplay:10.37,2013-04-08 08:25:00,
2013-04-08 05:35:00,52.5,23.5,24.14,West,270,7.6,7.6,32,0.00,CLR,,0.00,WeatherDisplay:10.37,2013-04-08 11:35:00,
2013-04-08 05:40:00,52.3,23.3,24.14,West,270,10.4,10.4,32,0.00,CLR,,0.00,WeatherDisplay:10.37,2013-04-08 11:40:00,
2013-04-08 05:46:00,52.2,23.9,24.14,West,270,12.7,12.7,33,0.00,CLR,,0.00,WeatherDisplay:10.37,2013-04-08 11:46:00,
2013-04-08 05:51:00,52.3,24.0,24.14,SW,225,11.5,11.5,33,0.00,CLR,,0.00,WeatherDisplay:10.37,2013-04-08 11:51:00,
2013-04-08 05:56:00,52.3,24.0,24.14,NW,315,11.5,11.5,33,0.00,CLR,,0.00,WeatherDisplay:10.37,2013-04-08 11:56:00,
2013-04-08 06:02:00,52.3,24.0,24.14,West,270,10.4,10.4,33,0.00,CLR,,0.00,WeatherDisplay:10.37,2013-04-08 12:02:00,
2013-04-08 06:07:00,52.3,24.0,24.14,West,270,10.4,10.4,33,0.00,CLR,,0.00,WeatherDisplay:10.37,2013-04-08 12:07:00,
2013-04-08 06:12:00,52.2,23.9,24.14,West,270,10.4,10.4,33,0.00,CLR,,0.00,WeatherDisplay:10.37,2013-04-08 12:12:00,
2013-04-08 06:17:00,51.8,24.3,24.14,West,270,10.4,10.4,34,0.00,CLR,,0.00,WeatherDisplay:10.37,2013-04-08 12:17:00,
2013-04-08 06:22:00,50.7,23.3,24.14,West,270,6.9,6.9,34,0.00,CLR,,0.00,WeatherDisplay:10.37,2013-04-08 12:22:00,
2013-04-08 06:28:00,49.6,23.7,24.14,SW,225,3.5,3.5,36,0.00,CLR,,0.00,WeatherDisplay:10.37,2013-04-08 12:28:00,
2013-04-08 06:33:00,48.9,24.4,24.14,South,180,5.8,5.8,38,0.00,CLR,,0.00,WeatherDisplay:10.37,2013-04-08 12:33:00,
2013-04-08 06:38:00,49.3,25.3,24.15,SW,225,5.8,5.8,39,0.00,CLR,,0.00,WeatherDisplay:10.37,2013-04-08 12:38:00,
2013-04-08 06:43:00,49.8,25.8,24.14,SW,225,5.8,5.8,39,0.00,CLR,,0.00,WeatherDisplay:10.37,2013-04-08 12:43:00,
2013-04-08 06:48:00,50.2,24.9,24.14,SW,225,4.6,4.6,37,0.00,CLR,,0.00,WeatherDisplay:10.37,2013-04-08 12:48:00,
2013-04-08 06:53:00,50.4,24.4,24.14,SW,225,4.6,4.6,36,0.00,CLR,,0.00,WeatherDisplay:10.37,2013-04-08 12:53:00,
2013-04-08 06:58:00,50.7,24.7,24.14,SW,225,5.8,5.8,36,0.00,CLR,,0.00,WeatherDisplay:10.37,2013-04-08 12:58:00,
2013-04-08 07:04:00,51.8,25.0,24.14,SW,225,4.6,4.6,35,0.00,CLR,,0.00,WeatherDisplay:10.37,2013-04-08 13:04:00,
2013-04-08 07:09:00,52.5,24.9,24.14,West,270,4.6,4.6,34,0.00,CLR,,0.00,WeatherDisplay:10.37,2013-04-08 13:09:00,
2013-04-08 07:14:00,53.4,25.0,24.14,West,270,3.5,3.5,33,0.00,CLR,,0.00,WeatherDisplay:10.37,2013-04-08 13:14:00,
2013-04-08 07:19:00,54.1,24.1,24.15,West,270,3.5,3.5,31,0.00,CLR,,0.00,WeatherDisplay:10.37,2013-04-08 13:19:00,
2013-04-08 07:24:00,55.0,24.9,24.15,West,270,3.5,3.5,31,0.00,CLR,,0.00,WeatherDisplay:10.37,2013-04-08 13:24:00,
2013-04-08 07:29:00,55.9,24.9,24.15,West,270,2.3,2.3,30,0.00,CLR,,0.00,WeatherDisplay:10.37,2013-04-08 13:29:00,
2013-04-08 07:35:00,56.5,24.6,24.15,SW,225,2.3,2.3,29,0.00,CLR,,0.00,WeatherDisplay:10.37,2013-04-08 13:35:00,
2013-04-08 07:40:00,57.4,24.5,24.14,SW,225,3.5,3.5,28,0.00,CLR,,0.00,WeatherDisplay:10.37,2013-04-08 13:40:00,
2013-04-08 07:46:00,57.4,23.6,24.14,West,270,3.5,3.5,27,0.00,CLR,,0.00,WeatherDisplay:10.37,2013-04-08 13:46:00,
2013-04-08 07:51:00,57.9,24.1,24.14,NW,315,3.5,3.5,27,0.00,CLR,,0.00,WeatherDisplay:10.37,2013-04-08 13:51:00,
2013-04-08 07:56:00,59.0,24.1,24.14,SW,225,2.3,2.3,26,0.00,CLR,,0.00,WeatherDisplay:10.37,2013-04-08 13:56:00,
2013-04-08 08:02:00,60.1,24.1,24.14,South,180,1.1,1.1,25,0.00,CLR,,0.00,WeatherDisplay:10.37,2013-04-08 14:02:00,
2013-04-08 08:07:00,60.1,24.1,24.14,South,180,1.1,1.1,25,0.00,CLR,,0.00,WeatherDisplay:10.37,2013-04-08 14:07:00,
2013-04-08 08:12:00,61.2,23.0,24.14,SW,225,3.5,3.5,23,0.00,CLR,,0.00,WeatherDisplay:10.37,2013-04-08 14:12:00,
2013-04-08 08:17:00,61.3,23.2,24.14,SE,135,2.3,0.0,23,0.00,CLR,,0.00,WeatherDisplay:10.37,2013-04-08 14:17:00,
2013-04-08 08:22:00,61.7,22.4,24.14,SSE,158,3.5,3.5,22,0.00,CLR,,0.00,WeatherDisplay:10.37,2013-04-08 14:22:00,
2013-04-08 08:27:00,60.1,23.1,24.14,South,180,3.5,3.5,24,0.00,CLR,,0.00,WeatherDisplay:10.37,2013-04-08 14:27:00,
2013-04-08 08:32:00,60.8,22.7,24.13,South,180,4.6,4.6,23,0.00,CLR,,0.00,WeatherDisplay:10.37,2013-04-08 14:32:00,
2013-04-08 08:37:00,60.1,23.1,24.14,SSE,158,6.9,6.9,24,0.00,CLR,,0.00,WeatherDisplay:10.37,2013-04-08 14:37:00,
2013-04-08 08:42:00,59.2,23.3,24.13,SE,135,8.1,8.1,25,0.00,CLR,,0.00,WeatherDisplay:10.37,2013-04-08 14:42:00,
2013-04-08 08:48:00,58.5,23.7,24.14,South,180,5.8,5.8,26,0.00,CLR,,0.00,WeatherDisplay:10.37,2013-04-08 14:48:00,
2013-04-08 08:53:00,58.8,24.0,24.13,South,180,5.8,5.8,26,0.00,CLR,,0.00,WeatherDisplay:10.37,2013-04-08 14:53:00,
2013-04-08 08:58:00,59.2,23.3,24.13,SE,135,8.1,8.1,25,0.00,CLR,,0.00,WeatherDisplay:10.37,2013-04-08 14:58:00,
2013-04-08 09:03:00,60.4,24.4,24.13,South,180,5.8,5.8,25,0.00,CLR,,0.00,WeatherDisplay:10.37,2013-04-08 15:03:00,
2013-04-08 09:10:00,62.4,24.1,24.12,South,180,5.8,6.0,23,0.00,CLR,,0.00,WeatherDisplay:10.37,2013-04-08 15:10:00,
2013-04-08 09:15:00,62.2,23.9,24.12,SW,225,8.1,8.1,23,0.00,CLR,,0.00,WeatherDisplay:10.37,2013-04-08 15:15:00,
2013-04-08 09:21:00,63.5,22.8,24.12,South,180,10.4,10.4,21,0.00,CLR,,0.00,WeatherDisplay:10.37,2013-04-08 15:21:00,
2013-04-08 09:26:00,63.0,22.4,24.12,SW,225,10.4,10.4,21,0.00,CLR,,0.00,WeatherDisplay:10.37,2013-04-08 15:26:00,
2013-04-08 09:31:00,62.6,22.1,24.11,South,180,5.8,5.8,21,0.00,CLR,,0.00,WeatherDisplay:10.37,2013-04-08 15:31:00,
2013-04-08 09:37:00,63.0,22.4,24.12,SW,225,6.9,6.9,21,0.00,CLR,,0.00,WeatherDisplay:10.37,2013-04-08 15:37:00,
2013-04-08 09:42:00,62.8,22.2,24.11,South,180,10.4,10.4,21,0.00,CLR,,0.00,WeatherDisplay:10.37,2013-04-08 15:42:00,
2013-04-08 09:47:00,62.2,22.9,24.11,SW,225,11.5,11.5,22,0.00,CLR,,0.00,WeatherDisplay:10.37,2013-04-08 15:47:00,
2013-04-08 09:52:00,62.1,22.7,24.11,South,180,13.8,13.8,22,0.00,CLR,,0.00,WeatherDisplay:10.37,2013-04-08 15:52:00,
2013-04-08 09:57:00,64.0,23.3,24.11,SE,135,10.4,10.4,21,0.00,CLR,,0.00,WeatherDisplay:10.37,2013-04-08 15:57:00,
2013-04-08 10:03:00,63.9,23.1,24.10,South,180,5.8,5.8,21,0.00,CLR,,0.00,WeatherDisplay:10.37,2013-04-08 16:03:00,
2013-04-08 10:08:00,66.6,23.0,24.10,SW,225,6.9,6.9,19,0.00,CLR,,0.00,WeatherDisplay:10.37,2013-04-08 16:08:00,
2013-04-08 10:13:00,66.0,23.8,24.10,South,180,10.4,10.4,20,0.00,CLR,,0.00,WeatherDisplay:10.37,2013-04-08 16:13:00,
2013-04-08 10:19:00,67.5,23.7,24.10,South,180,8.1,8.1,19,0.00,CLR,,0.00,WeatherDisplay:10.37,2013-04-08 16:19:00,
2013-04-08 10:24:00,67.1,24.6,24.09,SW,225,20.7,20.7,20,0.00,CLR,,0.00,WeatherDisplay:10.37,2013-04-08 16:24:00,
2013-04-08 10:29:00,65.5,25.6,24.09,SW,225,20.7,20.7,22,0.00,CLR,,0.00,WeatherDisplay:10.37,2013-04-08 16:29:00,
2013-04-08 10:34:00,66.6,25.4,24.08,SW,225,12.7,12.7,21,0.00,CLR,,0.00,WeatherDisplay:10.37,2013-04-08 16:34:00,
2013-04-08 10:40:00,66.4,25.2,24.08,SW,225,23.0,23.0,21,0.00,CLR,,0.00,WeatherDisplay:10.37,2013-04-08 16:40:00,
2013-04-08 10:45:00,67.1,25.8,24.08,SW,225,11.5,11.5,21,0.00,CLR,,0.00,WeatherDisplay:10.37,2013-04-08 16:45:00,
2013-04-08 10:50:00,66.7,24.3,24.08,SW,225,20.7,20.7,20,0.00,CLR,,0.00,WeatherDisplay:10.37,2013-04-08 16:50:00,
2013-04-08 10:55:00,67.8,25.2,24.07,SSE,158,19.6,19.6,20,0.00,CLR,,0.00,WeatherDisplay:10.37,2013-04-08 16:55:00,
2013-04-08 11:01:00,68.7,23.5,24.07,South,180,18.4,18.4,18,0.00,CLR,,0.00,WeatherDisplay:10.37,2013-04-08 17:01:00,
2013-04-08 11:06:00,68.4,21.8,24.07,SSE,158,12.7,12.7,17,0.00,CLR,,0.00,WeatherDisplay:10.37,2013-04-08 17:06:00,
2013-04-08 11:11:00,69.3,22.5,24.06,South,180,17.3,17.3,17,0.00,CLR,,0.00,WeatherDisplay:10.37,2013-04-08 17:11:00,
2013-04-08 11:16:00,68.9,22.2,24.06,SE,135,19.6,19.6,17,0.00,CLR,,0.00,WeatherDisplay:10.37,2013-04-08 17:16:00,
2013-04-08 11:22:00,68.4,21.8,24.06,SW,225,20.7,20.7,17,0.00,CLR,,0.00,WeatherDisplay:10.37,2013-04-08 17:22:00,
2013-04-08 11:27:00,69.6,22.8,24.06,SE,135,18.4,18.4,17,0.00,CLR,,0.00,WeatherDisplay:10.37,2013-04-08 17:27:00,
2013-04-08 11:32:00,70.5,20.6,24.06,SW,225,19.6,19.6,15,0.00,CLR,,0.00,WeatherDisplay:10.37,2013-04-08 17:32:00,
2013-04-08 11:37:00,69.6,22.8,24.06,South,180,15.0,15.0,17,0.00,CLR,,0.00,WeatherDisplay:10.37,2013-04-08 17:37:00,
2013-04-08 11:42:00,69.6,21.4,24.05,South,180,15.0,15.0,16,0.00,CLR,,0.00,WeatherDisplay:10.37,2013-04-08 17:42:00,
2013-04-08 11:47:00,69.6,21.4,24.05,SW,225,23.0,23.0,16,0.00,CLR,,0.00,WeatherDisplay:10.37,2013-04-08 17:47:00,
2013-04-08 11:53:00,70.3,20.4,24.04,NE,45,16.1,16.1,15,0.00,CLR,,0.00,WeatherDisplay:10.37,2013-04-08 17:53:00,
2013-04-08 11:58:00,69.4,21.2,24.04,South,180,19.6,19.6,16,0.00,CLR,,0.00,WeatherDisplay:10.37,2013-04-08 17:58:00,
2013-04-08 12:03:00,69.8,21.5,24.03,South,180,16.1,16.1,16,0.00,CLR,,0.00,WeatherDisplay:10.37,2013-04-08 18:03:00,
2013-04-08 12:08:00,70.7,20.7,24.03,South,180,17.3,17.3,15,0.00,CLR,,0.00,WeatherDisplay:10.37,2013-04-08 18:08:00,
2013-04-08 12:13:00,70.3,20.4,24.03,SW,225,20.7,20.7,15,0.00,CLR,,0.00,WeatherDisplay:10.37,2013-04-08 18:13:00,
2013-04-08 12:18:00,71.6,19.8,24.02,South,180,25.3,25.3,14,0.00,CLR,,0.00,WeatherDisplay:10.37,2013-04-08 18:18:00,
2013-04-08 12:24:00,70.7,19.1,24.01,SSW,202,26.5,26.5,14,0.00,CLR,,0.00,WeatherDisplay:10.37,2013-04-08 18:24:00,
2013-04-08 12:29:00,71.6,18.1,24.01,South,180,33.4,33.4,13,0.04,RA,,0.04,WeatherDisplay:10.37,2013-04-08 18:29:00,
2013-04-08 12:34:00,72.7,19.0,24.00,SW,225,20.7,20.7,13,0.04,RA,,0.04,WeatherDisplay:10.37,2013-04-08 18:34:00,
2013-04-08 12:39:00,72.7,19.0,24.01,SW,225,24.2,24.2,13,0.04,,,0.04,WeatherDisplay:10.37,2013-04-08 18:39:00,
2013-04-08 12:44:00,73.4,24.4,24.00,South,180,23.0,23.0,16,0.04,CLR,,0.04,WeatherDisplay:10.37,2013-04-08 18:44:00,
2013-04-08 12:50:00,73.0,19.2,24.00,South,180,21.9,21.9,13,0.04,CLR,,0.04,WeatherDisplay:10.37,2013-04-08 18:50:00,
2013-04-08 12:55:00,74.5,25.3,24.00,SW,225,17.3,17.3,16,0.04,CLR,,0.04,WeatherDisplay:10.37,2013-04-08 18:55:00,
2013-04-08 13:00:00,71.8,18.2,23.99,NW,315,15.0,15.0,13,0.04,CLR,,0.04,WeatherDisplay:10.37,2013-04-08 19:00:00,
2013-04-08 13:05:00,71.4,21.3,23.99,South,180,20.7,20.7,15,0.04,CLR,,0.04,WeatherDisplay:10.37,2013-04-08 19:05:00,
2013-04-08 13:10:00,72.1,20.3,23.98,South,180,18.4,18.4,14,0.04,CLR,,0.04,WeatherDisplay:10.37,2013-04-08 19:10:00,
2013-04-08 13:16:00,72.9,19.1,23.98,South,180,19.6,19.6,13,0.04,CLR,,0.04,WeatherDisplay:10.37,2013-04-08 19:16:00,
2013-04-08 13:21:00,73.8,24.7,23.98,South,180,15.9,15.9,16,0.04,CLR,,0.04,WeatherDisplay:10.37,2013-04-08 19:21:00,
2013-04-08 13:26:00,74.7,25.5,23.97,South,180,17.3,17.3,16,0.04,CLR,,0.04,WeatherDisplay:10.37,2013-04-08 19:26:00,
2013-04-08 13:31:00,74.8,25.6,23.96,SW,225,15.0,15.0,16,0.00,CLR,,0.04,WeatherDisplay:10.37,2013-04-08 19:31:00,
2013-04-08 13:36:00,73.6,24.6,23.97,South,180,27.6,27.6,16,0.00,CLR,,0.04,WeatherDisplay:10.37,2013-04-08 19:36:00,
2013-04-08 13:42:00,73.9,24.9,23.96,SSW,202,23.0,23.0,16,0.00,CLR,,0.04,WeatherDisplay:10.37,2013-04-08 19:42:00,
2013-04-08 13:47:00,74.7,25.5,23.95,NW,315,17.3,17.3,16,0.00,CLR,,0.04,WeatherDisplay:10.37,2013-04-08 19:47:00,
2013-04-08 13:52:00,75.9,24.9,23.95,SW,225,21.9,21.9,15,0.00,CLR,,0.04,WeatherDisplay:10.37,2013-04-08 19:52:00,
2013-04-08 13:57:00,75.9,24.9,23.95,SE,135,20.7,20.7,15,0.00,CLR,,0.04,WeatherDisplay:10.37,2013-04-08 19:57:00,
2013-04-08 14:02:00,75.6,24.6,23.95,South,180,19.6,19.6,15,0.00,CLR,,0.04,WeatherDisplay:10.37,2013-04-08 20:02:00,
2013-04-08 14:08:00,73.8,24.7,23.94,South,180,19.6,19.6,16,0.00,CLR,,0.04,WeatherDisplay:10.37,2013-04-08 20:08:00,
2013-04-08 14:13:00,75.4,24.5,23.93,SW,225,20.7,20.7,15,0.00,CLR,,0.04,WeatherDisplay:10.37,2013-04-08 20:13:00,
2013-04-08 14:18:00,76.1,25.1,23.93,SW,225,25.3,25.3,15,0.00,CLR,,0.04,WeatherDisplay:10.37,2013-04-08 20:18:00,
2013-04-08 14:23:00,75.2,24.3,23.92,South,180,24.2,24.2,15,0.00,CLR,,0.04,WeatherDisplay:10.37,2013-04-08 20:23:00,
2013-04-08 14:28:00,76.6,25.5,23.92,South,180,21.9,21.9,15,0.00,CLR,,0.04,WeatherDisplay:10.37,2013-04-08 20:28:00,
2013-04-08 14:33:00,76.8,25.6,23.92,South,180,20.7,20.7,15,0.00,CLR,,0.04,WeatherDisplay:10.37,2013-04-08 20:33:00,
2013-04-08 14:39:00,76.1,25.1,23.92,SW,225,20.7,20.7,15,0.00,CLR,,0.04,WeatherDisplay:10.37,2013-04-08 20:39:00,
2013-04-08 14:44:00,73.0,19.2,23.92,South,180,26.5,26.5,13,0.00,CLR,,0.04,WeatherDisplay:10.37,2013-04-08 20:44:00,
2013-04-08 14:50:00,72.0,18.4,23.91,SE,135,28.8,28.8,13,0.02,RA,,0.06,WeatherDisplay:10.37,2013-04-08 20:50:00,
2013-04-08 14:55:00,74.7,26.9,23.90,SE,135,18.4,18.4,17,0.02,RA,,0.06,WeatherDisplay:10.37,2013-04-08 20:55:00,
2013-04-08 15:00:00,74.7,25.5,23.90,SSE,158,41.4,41.4,16,0.11,RA,,0.14,WeatherDisplay:10.37,2013-04-08 21:00:00,
2013-04-08 15:06:00,75.0,27.2,23.90,SW,225,24.2,24.2,17,0.11,RA,,0.14,WeatherDisplay:10.37,2013-04-08 21:06:00,
2013-04-08 15:11:00,75.0,25.7,23.90,South,180,21.9,21.9,16,0.11,CLR,,0.14,WeatherDisplay:10.37,2013-04-08 21:11:00,
2013-04-08 15:17:00,73.0,21.0,23.89,South,180,29.9,29.9,14,0.15,RA,,0.19,WeatherDisplay:10.37,2013-04-08 21:17:00,
2013-04-08 15:22:00,74.3,26.6,23.88,South,180,26.5,26.5,17,0.15,RA,,0.19,WeatherDisplay:10.37,2013-04-08 21:22:00,
2013-04-08 15:27:00,74.3,25.2,23.88,South,180,31.1,31.1,16,0.19,RA,,0.22,WeatherDisplay:10.37,2013-04-08 21:27:00,
2013-04-08 15:32:00,75.7,24.8,23.88,South,180,19.6,19.6,15,0.19,RA,,0.22,WeatherDisplay:10.37,2013-04-08 21:32:00,
2013-04-08 15:38:00,77.7,22.9,23.88,SW,225,33.4,33.4,13,0.19,,,0.22,WeatherDisplay:10.37,2013-04-08 21:38:00,
2013-04-08 15:43:00,77.4,22.6,23.88,SW,225,29.9,29.9,13,0.19,CLR,,0.22,WeatherDisplay:10.37,2013-04-08 21:43:00,
2013-04-08 15:48:00,76.1,23.4,23.87,SW,225,35.7,35.7,14,0.24,RA,,0.30,WeatherDisplay:10.37,2013-04-08 21:48:00,
2013-04-08 15:53:00,76.5,23.7,23.87,South,180,25.3,25.3,14,0.24,RA,,0.30,WeatherDisplay:10.37,2013-04-08 21:53:00,
2013-04-08 15:58:00,76.8,24.0,23.87,SW,225,32.2,32.2,14,0.28,RA,,0.34,WeatherDisplay:10.37,2013-04-08 21:58:00,
2013-04-08 16:03:00,76.1,23.4,23.87,West,270,28.8,28.8,14,0.20,RA,,0.34,WeatherDisplay:10.37,2013-04-08 22:03:00,
2013-04-08 16:09:00,74.8,24.1,23.87,SW,225,36.8,36.8,15,0.20,CLR,,0.34,WeatherDisplay:10.37,2013-04-08 22:09:00,
2013-04-08 16:14:00,74.3,23.6,23.87,SW,225,28.8,28.8,15,0.25,RA,,0.39,WeatherDisplay:10.37,2013-04-08 22:14:00,
2013-04-08 16:19:00,75.6,23.0,23.88,SW,225,26.5,26.5,14,0.20,RA,,0.39,WeatherDisplay:10.37,2013-04-08 22:19:00,
2013-04-08 16:25:00,75.7,23.1,23.88,South,180,26.5,26.5,14,0.20,CLR,,0.39,WeatherDisplay:10.37,2013-04-08 22:25:00,
2013-04-08 16:30:00,76.8,24.0,23.88,SW,225,20.7,20.7,14,0.17,CLR,,0.39,WeatherDisplay:10.37,2013-04-08 22:30:00,
2013-04-08 16:35:00,74.8,24.1,23.88,SW,225,34.5,34.5,15,0.17,CLR,,0.39,WeatherDisplay:10.37,2013-04-08 22:35:00,
2013-04-08 16:40:00,73.2,17.5,23.88,SW,225,24.2,24.2,12,0.18,RA,,0.40,WeatherDisplay:10.37,2013-04-08 22:40:00,
2013-04-08 16:45:00,73.4,22.9,23.88,South,180,23.0,23.0,15,0.12,RA,,0.40,WeatherDisplay:10.37,2013-04-08 22:45:00,
2013-04-08 16:50:00,73.2,17.5,23.87,SW,225,29.9,29.9,12,0.11,CLR,,0.40,WeatherDisplay:10.37,2013-04-08 22:50:00,
2013-04-08 16:56:00,73.2,17.5,23.87,South,180,20.7,20.7,12,0.11,CLR,,0.40,WeatherDisplay:10.37,2013-04-08 22:56:00,
2013-04-08 17:01:00,73.0,17.4,23.87,SW,225,23.0,23.0,12,0.06,CLR,,0.40,WeatherDisplay:10.37,2013-04-08 23:01:00,
2013-04-08 17:06:00,72.5,16.9,23.87,SW,225,26.5,26.5,12,0.06,CLR,,0.40,WeatherDisplay:10.37,2013-04-08 23:06:00,
2013-04-08 17:11:00,73.2,17.5,23.86,SW,225,19.6,19.6,12,0.06,CLR,,0.40,WeatherDisplay:10.37,2013-04-08 23:11:00,
2013-04-08 17:17:00,72.9,17.2,23.86,SW,225,31.1,31.1,12,0.01,CLR,,0.40,WeatherDisplay:10.37,2013-04-08 23:17:00,
2013-04-08 17:22:00,72.1,16.7,23.86,South,180,20.7,20.7,12,0.01,CLR,,0.40,WeatherDisplay:10.37,2013-04-08 23:22:00,
2013-04-08 17:27:00,72.1,16.7,23.86,SE,135,31.1,31.1,12,0.01,CLR,,0.40,WeatherDisplay:10.37,2013-04-08 23:27:00,
2013-04-08 17:32:00,72.1,16.7,23.86,South,180,26.5,26.5,12,0.01,CLR,,0.40,WeatherDisplay:10.37,2013-04-08 23:32:00,
2013-04-08 17:37:00,72.1,16.7,23.87,SW,225,20.7,20.7,12,0.00,CLR,,0.40,WeatherDisplay:10.37,2013-04-08 23:37:00,
2013-04-08 17:42:00,71.8,16.4,23.86,SW,225,26.5,26.5,12,0.00,CLR,,0.40,WeatherDisplay:10.37,2013-04-08 23:42:00,
2013-04-08 17:47:00,71.6,16.2,23.86,South,180,20.7,20.7,12,0.00,CLR,,0.40,WeatherDisplay:10.37,2013-04-08 23:47:00,
2013-04-08 17:53:00,72.0,16.5,23.87,SW,225,27.6,27.6,12,0.00,CLR,,0.40,WeatherDisplay:10.37,2013-04-08 23:53:00,
2013-04-08 18:01:00,72.0,16.5,23.86,SSW,202,21.9,21.9,12,0.00,CLR,,0.40,WeatherDisplay:10.37,2013-04-09 00:01:00,
2013-04-08 22:29:00,58.8,26.6,23.92,West,270,21.9,21.9,29,0.00,CLR,,0.41,WeatherDisplay:10.37,2013-04-09 04:29:00,
2013-04-08 22:30:00,58.1,26.8,23.92,NW,315,21.9,21.9,30,0.01,RA,,0.41,WeatherDisplay:10.37,2013-04-09 04:30:00,
2013-04-08 22:35:00,55.8,28.5,23.93,North,0,17.3,17.5,35,0.01,RA,,0.41,WeatherDisplay:10.37,2013-04-09 04:35:00,
2013-04-08 22:40:00,53.2,31.3,23.92,North,0,26.5,26.5,43,0.01,,,0.41,WeatherDisplay:10.37,2013-04-09 04:40:00,
2013-04-08 22:45:00,52.7,31.4,23.93,North,0,23.0,23.0,44,0.01,CLR,,0.41,WeatherDisplay:10.37,2013-04-09 04:45:00,
2013-04-08 22:51:00,52.3,31.0,23.93,North,0,27.6,27.6,44,0.01,CLR,,0.41,WeatherDisplay:10.37,2013-04-09 04:51:00,
2013-04-08 22:56:00,52.2,30.9,23.93,NW,315,21.9,21.9,44,0.01,CLR,,0.41,WeatherDisplay:10.37,2013-04-09 04:56:00,
2013-04-08 23:01:00,52.2,31.4,23.93,NW,315,24.2,24.2,45,0.01,CLR,,0.41,WeatherDisplay:10.37,2013-04-09 05:01:00,
2013-04-08 23:06:00,52.2,31.4,23.93,NW,315,25.3,25.3,45,0.01,CLR,,0.41,WeatherDisplay:10.37,2013-04-09 05:06:00,
2013-04-08 23:11:00,52.0,31.3,23.92,NW,315,26.5,26.5,45,0.01,CLR,,0.41,WeatherDisplay:10.37,2013-04-09 05:11:00,
2013-04-08 23:16:00,51.8,31.1,23.92,NW,315,23.0,23.0,45,0.01,CLR,,0.41,WeatherDisplay:10.37,2013-04-09 05:16:00,
2013-04-08 23:22:00,51.8,31.1,23.92,NW,315,27.6,27.6,45,0.01,CLR,,0.41,WeatherDisplay:10.37,2013-04-09 05:22:00,
2013-04-08 23:27:00,51.6,31.5,23.92,NW,315,26.5,26.5,46,0.01,CLR,,0.41,WeatherDisplay:10.37,2013-04-09 05:27:00,
2013-04-08 23:32:00,51.4,31.3,23.92,NW,315,19.6,19.6,46,0.00,CLR,,0.41,WeatherDisplay:10.37,2013-04-09 05:32:00,
2013-04-08 23:37:00,51.4,31.3,23.92,NNW,338,27.6,27.6,46,0.00,CLR,,0.41,WeatherDisplay:10.37,2013-04-09 05:37:00,
2013-04-08 23:42:00,51.3,31.2,23.92,WNW,292,19.6,19.6,46,0.00,CLR,,0.41,WeatherDisplay:10.37,2013-04-09 05:42:00,
2013-04-08 23:47:00,51.3,31.2,23.93,North,0,17.3,17.3,46,0.00,CLR,,0.41,WeatherDisplay:10.37,2013-04-09 05:47:00,
2013-04-08 23:53:00,51.3,31.2,23.95,WSW,248,11.5,11.5,46,0.00,CLR,,0.41,WeatherDisplay:10.37,2013-04-09 05:53:00,
2013-04-08 23:58:00,51.3,31.2,23.95,East,90,8.1,8.1,46,0.00,CLR,,0.00,WeatherDisplay:10.37,2013-04-09 05:58:00,